Morrisville, Missouri
Current Conditions -  °F | °C
As of 1:32 PM on Sunday 21 Dec 2014 (Local Time) from KSGF Reporting Station
Overcast Overcast  
Wind Chill:   Ceiling: 4200
Heat Index:   Visibility: 10mi
Dew Point:   Wind: 16mph
Humidity: 82%   Direction: 160°SSE
Pressure: 29.95"   Gusts: NA
Location:  37.48°N, 93.43°W
Report Text: KSGF 211932Z 16014KT 10SM SCT011 OVC042 06/03 A2995 RMK AO2 T00560028
Loading
Personal Weather Stations






























Interactive Weather Map New forecast layout! Learn more

10-Day Weather Forecast

Advertisements
Track Severe Weather on mobile